Time;durP1;ratioP1;P1;durP2;ratioP2;P2;SDS_P1;SDS_P2;PMS_P1;PMS_P2;Temp;Humidity;BMP_temperature;BMP_pressure;BME280_temperature;BME280_humidity;BME280_pressure;Samples;Min_cycle;Max_cycle;Signal;HPM_P1;HPM_P2
2021/10/05 00:01:11;;;;;;;13.82;10.50;;;;;;;;;;2069658;28;20493;-70
2021/10/05 00:02:31;;;;;;;12.63;10.77;;;;;;;;;;2067701;28;20038;-67
2021/10/05 00:03:50;;;;;;;12.80;11.05;;;;;;;;;;2066842;28;20381;-70
2021/10/05 00:05:09;;;;;;;12.35;10.90;;;;;;;;;;2067081;28;20038;-69
2021/10/05 00:06:28;;;;;;;11.00;9.88;;;;;;;;;;2065441;28;20071;-70
2021/10/05 00:07:47;;;;;;;13.82;10.23;;;;;;;;;;2067244;28;20084;-70
2021/10/05 00:09:06;;;;;;;12.98;10.18;;;;;;;;;;2066426;28;20065;-70
2021/10/05 00:10:25;;;;;;;10.32;9.43;;;;;;;;;;2068909;28;20136;-70
2021/10/05 00:11:44;;;;;;;11.55;9.45;;;;;;;;;;2067292;28;20073;-69
2021/10/05 00:13:03;;;;;;;13.25;9.10;;;;;;;;;;2067782;28;20046;-71
2021/10/05 00:14:22;;;;;;;10.43;9.35;;;;;;;;;;2060997;28;20038;-67
2021/10/05 00:15:41;;;;;;;11.60;10.32;;;;;;;;;;2066408;28;20033;-68
2021/10/05 00:17:00;;;;;;;12.40;10.18;;;;;;;;;;2066467;28;20022;-70
2021/10/05 00:18:19;;;;;;;10.15;9.15;;;;;;;;;;2068439;28;20475;-69
2021/10/05 00:19:38;;;;;;;13.68;9.90;;;;;;;;;;2067743;28;20132;-69
2021/10/05 00:20:57;;;;;;;10.57;9.48;;;;;;;;;;2068262;28;20029;-70
2021/10/05 00:22:16;;;;;;;10.30;9.20;;;;;;;;;;2065680;28;20030;-69
2021/10/05 00:23:35;;;;;;;11.23;9.90;;;;;;;;;;2065787;28;20037;-69
2021/10/05 00:24:54;;;;;;;11.25;9.13;;;;;;;;;;2075683;28;20062;-66
2021/10/05 00:26:13;;;;;;;11.48;9.05;;;;;;;;;;2070697;28;20520;-69
2021/10/05 00:27:32;;;;;;;10.82;9.73;;;;;;;;;;2067799;28;20042;-69
2021/10/05 00:28:51;;;;;;;11.27;9.65;;;;;;;;;;2068438;28;20034;-69
2021/10/05 00:30:10;;;;;;;11.88;9.38;;;;;;;;;;2068673;28;20508;-71
2021/10/05 00:31:29;;;;;;;10.52;9.45;;;;;;;;;;2066696;28;20027;-69
2021/10/05 00:32:48;;;;;;;10.23;9.18;;;;;;;;;;2074891;28;20034;-70
2021/10/05 00:34:06;;;;;;;12.75;9.02;;;;;;;;;;2068297;28;20448;-69
2021/10/05 00:35:25;;;;;;;10.90;9.40;;;;;;;;;;2066461;28;20025;-68
2021/10/05 00:36:45;;;;;;;11.43;9.70;;;;;;;;;;2067777;28;20041;-70
2021/10/05 00:38:04;;;;;;;9.70;8.63;;;;;;;;;;2066083;28;20042;-70
2021/10/05 00:39:22;;;;;;;11.20;9.23;;;;;;;;;;2066733;28;20034;-66
2021/10/05 00:40:41;;;;;;;11.18;9.57;;;;;;;;;;2073671;28;20022;-67
2021/10/05 00:42:01;;;;;;;11.05;9.88;;;;;;;;;;2069982;28;20022;-70
2021/10/05 00:43:20;;;;;;;11.93;9.27;;;;;;;;;;2069142;28;20543;-69
2021/10/05 00:44:40;;;;;;;10.48;8.98;;;;;;;;;;2067073;28;20460;-69
2021/10/05 00:45:59;;;;;;;10.38;9.38;;;;;;;;;;2064951;28;20465;-67
2021/10/05 00:47:18;;;;;;;11.75;9.05;;;;;;;;;;2067231;28;20418;-66
2021/10/05 00:48:38;;;;;;;9.85;8.90;;;;;;;;;;2065959;28;20058;-67
2021/10/05 00:49:56;;;;;;;11.13;8.93;;;;;;;;;;2066153;28;20105;-68
2021/10/05 00:51:15;;;;;;;10.40;9.15;;;;;;;;;;2066143;28;20489;-69
2021/10/05 00:52:35;;;;;;;10.43;9.15;;;;;;;;;;2066484;28;20050;-67
2021/10/05 00:53:54;;;;;;;10.10;9.15;;;;;;;;;;2067227;28;20684;-69
2021/10/05 00:55:13;;;;;;;10.82;9.40;;;;;;;;;;2068598;28;20520;-69
2021/10/05 00:56:32;;;;;;;12.80;8.90;;;;;;;;;;2067928;28;20026;-65
2021/10/05 00:57:51;;;;;;;10.50;9.43;;;;;;;;;;2067442;28;20104;-68
2021/10/05 00:59:10;;;;;;;11.90;8.88;;;;;;;;;;2066196;28;20117;-67
2021/10/05 01:00:29;;;;;;;9.68;8.75;;;;;;;;;;2071888;28;20128;-69
2021/10/05 01:01:48;;;;;;;9.82;8.38;;;;;;;;;;2082788;28;20132;-70
2021/10/05 01:03:07;;;;;;;11.15;8.57;;;;;;;;;;2078396;28;20124;-69
2021/10/05 01:04:27;;;;;;;10.48;8.90;;;;;;;;;;2083909;28;20659;-68
2021/10/05 01:05:46;;;;;;;9.35;8.50;;;;;;;;;;2081530;28;20418;-71
2021/10/05 01:07:06;;;;;;;10.93;8.73;;;;;;;;;;2082574;28;21831;-69
2021/10/05 01:08:25;;;;;;;9.40;8.57;;;;;;;;;;2071598;28;20038;-68
2021/10/05 01:09:44;;;;;;;9.18;8.25;;;;;;;;;;2081427;28;20768;-70
2021/10/05 01:11:03;;;;;;;11.48;8.45;;;;;;;;;;2082527;28;21824;-68
2021/10/05 01:12:22;;;;;;;8.98;8.10;;;;;;;;;;2083364;28;20043;-68
2021/10/05 01:13:41;;;;;;;12.75;8.82;;;;;;;;;;2080478;28;20026;-68
2021/10/05 01:15:00;;;;;;;9.30;7.93;;;;;;;;;;2083670;28;20403;-64
2021/10/05 01:16:20;;;;;;;10.02;8.23;;;;;;;;;;2084463;28;20478;-67
2021/10/05 01:17:39;;;;;;;8.52;7.68;;;;;;;;;;2083354;28;20037;-69
2021/10/05 01:18:58;;;;;;;10.88;8.20;;;;;;;;;;2083834;28;20033;-68
2021/10/05 01:20:16;;;;;;;9.75;8.23;;;;;;;;;;2081672;28;20033;-66
2021/10/05 01:21:35;;;;;;;9.98;8.23;;;;;;;;;;2083231;28;20391;-68
2021/10/05 01:22:54;;;;;;;8.90;7.20;;;;;;;;;;2082134;28;20487;-66
2021/10/05 01:24:15;;;;;;;9.68;7.65;;;;;;;;;;2081090;28;21137;-68
2021/10/05 01:25:34;;;;;;;11.10;7.82;;;;;;;;;;2081410;28;20041;-69
2021/10/05 01:26:55;;;;;;;10.18;8.07;;;;;;;;;;2083533;28;20033;-68
2021/10/05 01:28:16;;;;;;;10.55;7.78;;;;;;;;;;2083172;28;20088;-67
2021/10/05 01:29:35;;;;;;;8.50;7.28;;;;;;;;;;2081861;28;20025;-68
2021/10/05 01:30:54;;;;;;;7.85;7.25;;;;;;;;;;2082840;28;20032;-67
2021/10/05 01:32:14;;;;;;;8.20;7.43;;;;;;;;;;2083020;28;20144;-68
2021/10/05 01:33:33;;;;;;;8.75;7.90;;;;;;;;;;2084173;28;20033;-66
2021/10/05 01:34:52;;;;;;;10.30;7.78;;;;;;;;;;2081580;28;20390;-66
2021/10/05 01:36:11;;;;;;;10.15;8.00;;;;;;;;;;2081558;28;20483;-69
2021/10/05 01:37:29;;;;;;;9.80;7.63;;;;;;;;;;2083969;28;20490;-67
2021/10/05 01:38:48;;;;;;;8.13;7.40;;;;;;;;;;2083122;28;20033;-68
2021/10/05 01:40:09;;;;;;;10.48;7.75;;;;;;;;;;2083306;28;20120;-68
2021/10/05 01:41:28;;;;;;;9.18;8.07;;;;;;;;;;2088676;28;20025;-69
2021/10/05 01:42:47;;;;;;;8.27;7.47;;;;;;;;;;2084192;28;20177;-69
2021/10/05 01:44:06;;;;;;;11.10;8.13;;;;;;;;;;2083251;28;20033;-65
2021/10/05 01:45:25;;;;;;;9.40;7.00;;;;;;;;;;2072360;28;20045;-68
2021/10/05 01:46:44;;;;;;;8.13;7.32;;;;;;;;;;2079397;28;20041;-67
2021/10/05 01:48:04;;;;;;;8.45;7.57;;;;;;;;;;2082665;28;20507;-68
2021/10/05 01:49:23;;;;;;;9.73;7.40;;;;;;;;;;2083490;28;20068;-68
2021/10/05 01:50:42;;;;;;;9.32;7.45;;;;;;;;;;2084575;28;20399;-66
2021/10/05 01:52:02;;;;;;;8.02;6.82;;;;;;;;;;2082487;28;20026;-68
2021/10/05 01:53:20;;;;;;;11.68;7.85;;;;;;;;;;2083507;28;20127;-65
2021/10/05 01:54:39;;;;;;;8.02;7.03;;;;;;;;;;2082305;28;20072;-68
2021/10/05 01:55:58;;;;;;;8.48;7.13;;;;;;;;;;2077847;28;20036;-70
2021/10/05 01:57:17;;;;;;;7.22;6.53;;;;;;;;;;2073005;28;20045;-67
2021/10/05 01:58:36;;;;;;;7.03;6.30;;;;;;;;;;2078723;28;20029;-66
2021/10/05 01:59:55;;;;;;;6.85;6.25;;;;;;;;;;2075179;28;20034;-67
2021/10/05 02:01:13;;;;;;;7.32;6.57;;;;;;;;;;2081792;28;20040;-70
2021/10/05 02:02:33;;;;;;;7.90;7.13;;;;;;;;;;2083892;28;20495;-67
2021/10/05 02:03:52;;;;;;;6.65;6.13;;;;;;;;;;2082662;28;20438;-68
2021/10/05 02:05:11;;;;;;;7.25;6.55;;;;;;;;;;2083095;28;20037;-68
2021/10/05 02:06:30;;;;;;;8.52;6.60;;;;;;;;;;2082422;28;20048;-66
2021/10/05 02:07:49;;;;;;;7.18;6.25;;;;;;;;;;2082348;28;20037;-67
2021/10/05 02:09:09;;;;;;;6.60;5.88;;;;;;;;;;2082466;28;20391;-67
2021/10/05 02:10:28;;;;;;;6.55;5.93;;;;;;;;;;2082464;28;20394;-66
2021/10/05 02:11:47;;;;;;;8.43;6.40;;;;;;;;;;2081670;28;20025;-66
2021/10/05 02:13:07;;;;;;;6.80;6.18;;;;;;;;;;2083067;28;20038;-68
2021/10/05 02:14:25;;;;;;;7.32;6.20;;;;;;;;;;2081094;28;20025;-67
2021/10/05 02:15:45;;;;;;;7.63;6.65;;;;;;;;;;2083401;28;20100;-68
2021/10/05 02:17:03;;;;;;;6.40;5.72;;;;;;;;;;2081693;28;20025;-66
2021/10/05 02:18:22;;;;;;;8.82;6.80;;;;;;;;;;2079989;28;20388;-67
2021/10/05 02:19:41;;;;;;;7.97;6.10;;;;;;;;;;2083013;28;20041;-68
2021/10/05 02:21:00;;;;;;;6.60;6.00;;;;;;;;;;2082436;28;20109;-68
2021/10/05 02:22:19;;;;;;;9.38;6.47;;;;;;;;;;2084596;28;20025;-68
2021/10/05 02:25:16;;;;;;;7.13;6.53;;;;;;;;;;2083478;28;20037;-68
2021/10/05 02:26:36;;;;;;;7.60;6.00;;;;;;;;;;2082783;28;20041;-67
2021/10/05 02:27:55;;;;;;;7.13;6.35;;;;;;;;;;2082042;28;20030;-66
2021/10/05 02:29:14;;;;;;;7.55;6.82;;;;;;;;;;2082373;28;20037;-68
2021/10/05 02:30:33;;;;;;;7.75;6.72;;;;;;;;;;2084466;28;20033;-67
2021/10/05 02:31:52;;;;;;;10.15;6.88;;;;;;;;;;2079327;28;20120;-67
2021/10/05 02:33:11;;;;;;;7.10;6.40;;;;;;;;;;2077013;28;20041;-67
2021/10/05 02:34:30;;;;;;;10.38;6.82;;;;;;;;;;2075364;28;20495;-68
2021/10/05 02:35:49;;;;;;;8.25;6.45;;;;;;;;;;2067202;28;21073;-68
2021/10/05 02:37:08;;;;;;;8.40;6.90;;;;;;;;;;2079603;28;20021;-67
2021/10/05 02:38:28;;;;;;;7.05;6.38;;;;;;;;;;2078028;28;20048;-67
2021/10/05 02:39:46;;;;;;;7.53;6.72;;;;;;;;;;2078329;28;20038;-67
2021/10/05 02:41:05;;;;;;;6.93;6.30;;;;;;;;;;2079881;28;20028;-68
2021/10/05 02:42:25;;;;;;;6.88;6.18;;;;;;;;;;2081528;28;20388;-68
2021/10/05 02:43:44;;;;;;;8.85;6.32;;;;;;;;;;2082650;28;20033;-68
2021/10/05 02:45:05;;;;;;;10.32;6.72;;;;;;;;;;2081663;28;20484;-68
2021/10/05 02:46:24;;;;;;;7.15;6.45;;;;;;;;;;2084840;28;20033;-69
2021/10/05 02:47:43;;;;;;;7.60;6.88;;;;;;;;;;2080604;28;20038;-65
2021/10/05 02:49:03;;;;;;;7.88;6.28;;;;;;;;;;2087346;28;20033;-68
2021/10/05 02:50:21;;;;;;;6.82;6.20;;;;;;;;;;2079032;28;20442;-68
2021/10/05 02:51:41;;;;;;;6.93;6.32;;;;;;;;;;2082626;28;20068;-66
2021/10/05 02:53:00;;;;;;;7.75;6.47;;;;;;;;;;2083156;28;20021;-68
2021/10/05 02:54:19;;;;;;;8.35;6.28;;;;;;;;;;2081865;28;20045;-69
2021/10/05 02:55:40;;;;;;;6.32;5.80;;;;;;;;;;2083889;28;20028;-68
2021/10/05 02:56:59;;;;;;;7.07;6.03;;;;;;;;;;2081602;28;20068;-69
2021/10/05 02:58:18;;;;;;;7.40;6.65;;;;;;;;;;2084018;28;20025;-67
2021/10/05 02:59:37;;;;;;;7.35;6.68;;;;;;;;;;2079164;28;20499;-68
2021/10/05 03:00:56;;;;;;;7.38;6.30;;;;;;;;;;2076999;28;20140;-68
2021/10/05 03:02:15;;;;;;;6.80;6.07;;;;;;;;;;2080909;28;20122;-68
2021/10/05 03:03:34;;;;;;;7.50;6.72;;;;;;;;;;2084309;28;20105;-66
2021/10/05 03:04:53;;;;;;;7.10;6.40;;;;;;;;;;2082372;28;20088;-66
2021/10/05 03:06:13;;;;;;;8.70;6.57;;;;;;;;;;2084836;28;20036;-67
2021/10/05 03:07:31;;;;;;;8.30;5.90;;;;;;;;;;2079679;28;20073;-67
2021/10/05 03:08:54;;;;;;;8.27;6.68;;;;;;;;;;2080246;28;20037;-67
2021/10/05 03:10:13;;;;;;;7.55;6.82;;;;;;;;;;2083263;28;20715;-68
2021/10/05 03:11:32;;;;;;;6.60;5.85;;;;;;;;;;2078918;28;20045;-69
2021/10/05 03:12:51;;;;;;;6.47;5.95;;;;;;;;;;2083100;28;20037;-67
2021/10/05 03:14:10;;;;;;;6.38;5.78;;;;;;;;;;2079842;28;20809;-67
2021/10/05 03:15:29;;;;;;;7.90;5.78;;;;;;;;;;2083024;28;20071;-65
2021/10/05 03:16:48;;;;;;;6.35;5.75;;;;;;;;;;2085917;28;20479;-66
2021/10/05 03:18:07;;;;;;;9.27;6.35;;;;;;;;;;2084097;28;20037;-68
2021/10/05 03:19:26;;;;;;;8.75;5.63;;;;;;;;;;2084226;28;20021;-65
2021/10/05 03:20:45;;;;;;;7.82;5.72;;;;;;;;;;2085811;28;20495;-66
2021/10/05 03:22:04;;;;;;;7.07;5.45;;;;;;;;;;2083241;28;20483;-68
2021/10/05 03:23:23;;;;;;;7.75;5.78;;;;;;;;;;2083324;28;20037;-67
2021/10/05 03:24:42;;;;;;;6.07;5.47;;;;;;;;;;2079633;28;20037;-68
2021/10/05 03:26:03;;;;;;;6.15;5.57;;;;;;;;;;2077840;28;20542;-68
2021/10/05 03:27:21;;;;;;;6.45;4.97;;;;;;;;;;2076149;28;20394;-66
2021/10/05 03:28:41;;;;;;;7.45;5.50;;;;;;;;;;2076984;28;20097;-67
2021/10/05 03:29:59;;;;;;;7.05;6.28;;;;;;;;;;2077901;28;20025;-68
2021/10/05 03:31:18;;;;;;;6.00;5.50;;;;;;;;;;2077532;28;20511;-66
2021/10/05 03:32:37;;;;;;;6.00;5.45;;;;;;;;;;2083585;28;20492;-64
2021/10/05 03:33:56;;;;;;;6.03;5.43;;;;;;;;;;2077341;28;20038;-67
2021/10/05 03:35:15;;;;;;;7.18;5.15;;;;;;;;;;2078243;28;20057;-67
2021/10/05 03:36:34;;;;;;;6.00;5.32;;;;;;;;;;2076938;28;20500;-67
2021/10/05 03:37:54;;;;;;;6.30;4.97;;;;;;;;;;2075682;28;20037;-66
2021/10/05 03:39:13;;;;;;;6.15;5.45;;;;;;;;;;2075446;28;20140;-67
2021/10/05 03:40:32;;;;;;;5.65;5.13;;;;;;;;;;2078646;28;20551;-66
2021/10/05 03:41:51;;;;;;;5.72;5.20;;;;;;;;;;2083348;28;20029;-67
2021/10/05 03:43:10;;;;;;;6.05;5.05;;;;;;;;;;2076647;28;20029;-68
2021/10/05 03:44:28;;;;;;;6.18;5.10;;;;;;;;;;2076712;28;20041;-68
2021/10/05 03:45:49;;;;;;;5.85;4.88;;;;;;;;;;2085158;28;20445;-69
2021/10/05 03:47:08;;;;;;;5.60;4.40;;;;;;;;;;2071173;28;20029;-68
2021/10/05 03:48:27;;;;;;;5.72;4.50;;;;;;;;;;2080310;28;20395;-68
2021/10/05 03:49:46;;;;;;;5.32;4.93;;;;;;;;;;2083172;28;20069;-67
2021/10/05 03:51:05;;;;;;;5.25;4.75;;;;;;;;;;2084288;28;20034;-69
2021/10/05 03:52:24;;;;;;;4.80;4.45;;;;;;;;;;2085276;28;20109;-67
2021/10/05 03:53:43;;;;;;;6.53;4.53;;;;;;;;;;2083121;28;21806;-69
2021/10/05 03:55:02;;;;;;;7.38;5.47;;;;;;;;;;2083672;28;21054;-69
2021/10/05 03:56:21;;;;;;;5.93;5.10;;;;;;;;;;2083642;28;20016;-69
2021/10/05 03:57:40;;;;;;;6.55;4.28;;;;;;;;;;2084305;28;20134;-72
2021/10/05 03:58:59;;;;;;;4.80;4.07;;;;;;;;;;2083059;28;20632;-72
2021/10/05 04:00:18;;;;;;;5.30;4.80;;;;;;;;;;2083308;28;20042;-71
2021/10/05 04:01:37;;;;;;;5.78;4.85;;;;;;;;;;2077728;28;20180;-67
2021/10/05 04:02:56;;;;;;;4.93;4.47;;;;;;;;;;2077588;28;20088;-68
2021/10/05 04:04:16;;;;;;;5.93;4.57;;;;;;;;;;2080585;28;20396;-71
2021/10/05 04:05:35;;;;;;;6.30;4.43;;;;;;;;;;2071549;28;20109;-67
2021/10/05 04:06:54;;;;;;;4.90;4.50;;;;;;;;;;2075791;28;21071;-69
2021/10/05 04:08:13;;;;;;;5.35;4.68;;;;;;;;;;2083286;28;20145;-68
2021/10/05 04:09:31;;;;;;;7.55;4.45;;;;;;;;;;2081182;28;20050;-68
2021/10/05 04:10:50;;;;;;;7.38;4.18;;;;;;;;;;2081166;28;20383;-69
2021/10/05 04:12:09;;;;;;;5.45;4.38;;;;;;;;;;2087454;28;20021;-69
2021/10/05 04:13:29;;;;;;;6.25;4.40;;;;;;;;;;2081390;28;20782;-68
2021/10/05 04:14:50;;;;;;;5.43;4.50;;;;;;;;;;2081086;28;20368;-69
2021/10/05 04:16:09;;;;;;;4.28;3.78;;;;;;;;;;2083334;28;20026;-68
2021/10/05 04:17:29;;;;;;;5.40;3.90;;;;;;;;;;2084440;28;20075;-68
2021/10/05 04:18:49;;;;;;;6.65;4.90;;;;;;;;;;2073781;28;20034;-66
2021/10/05 04:20:07;;;;;;;5.72;4.10;;;;;;;;;;2079269;28;20534;-65
2021/10/05 04:21:27;;;;;;;4.50;4.10;;;;;;;;;;2081128;28;20025;-65
2021/10/05 04:22:46;;;;;;;5.68;4.07;;;;;;;;;;2081555;28;20025;-68
2021/10/05 04:24:05;;;;;;;4.07;3.75;;;;;;;;;;2083102;28;20048;-67
2021/10/05 04:25:24;;;;;;;4.78;4.18;;;;;;;;;;2082966;28;20830;-66
2021/10/05 04:26:43;;;;;;;4.55;4.15;;;;;;;;;;2086949;28;20033;-66
2021/10/05 04:28:02;;;;;;;4.22;3.90;;;;;;;;;;2084228;28;20408;-66
2021/10/05 04:29:21;;;;;;;4.50;4.10;;;;;;;;;;2086955;28;20036;-67
2021/10/05 04:30:40;;;;;;;6.18;3.53;;;;;;;;;;2078056;28;20848;-66
2021/10/05 04:31:59;;;;;;;10.25;4.15;;;;;;;;;;2078677;28;20030;-66
2021/10/05 04:33:18;;;;;;;5.78;3.97;;;;;;;;;;2086052;28;20033;-67
2021/10/05 04:34:37;;;;;;;5.85;4.18;;;;;;;;;;2079826;28;20033;-66
2021/10/05 04:35:57;;;;;;;6.82;3.22;;;;;;;;;;2079717;28;20665;-66
2021/10/05 04:37:16;;;;;;;4.72;3.95;;;;;;;;;;2079805;28;20045;-65
2021/10/05 04:38:35;;;;;;;4.45;4.03;;;;;;;;;;2079140;28;20109;-66
2021/10/05 04:39:54;;;;;;;7.22;4.13;;;;;;;;;;2079665;28;20038;-66
2021/10/05 04:41:13;;;;;;;5.28;4.30;;;;;;;;;;2074758;28;20026;-68
2021/10/05 04:42:32;;;;;;;3.97;3.67;;;;;;;;;;2082789;28;20108;-67
2021/10/05 04:43:51;;;;;;;3.92;3.63;;;;;;;;;;2082958;28;20037;-66
2021/10/05 04:45:10;;;;;;;4.20;3.70;;;;;;;;;;2086068;28;20034;-68
2021/10/05 04:46:29;;;;;;;3.88;3.47;;;;;;;;;;2089749;28;20457;-68
2021/10/05 04:47:48;;;;;;;3.75;3.47;;;;;;;;;;2085441;28;20033;-67
2021/10/05 04:49:07;;;;;;;3.70;3.40;;;;;;;;;;2087240;28;20033;-66
2021/10/05 04:50:26;;;;;;;4.88;4.25;;;;;;;;;;2085447;28;20022;-68
2021/10/05 04:51:44;;;;;;;4.10;3.72;;;;;;;;;;2086279;28;20483;-68
2021/10/05 04:53:03;;;;;;;3.97;3.67;;;;;;;;;;2084653;28;20040;-68
2021/10/05 04:54:22;;;;;;;3.92;3.33;;;;;;;;;;2086720;28;20029;-66
2021/10/05 04:55:44;;;;;;;5.28;3.55;;;;;;;;;;2084701;28;20108;-67
2021/10/05 04:57:03;;;;;;;4.53;3.53;;;;;;;;;;2087866;28;20458;-68
2021/10/05 04:58:22;;;;;;;5.28;3.40;;;;;;;;;;2082813;28;20026;-65
2021/10/05 04:59:41;;;;;;;6.30;3.80;;;;;;;;;;2085647;28;20021;-68
2021/10/05 05:01:00;;;;;;;3.60;3.30;;;;;;;;;;2085497;28;20037;-67
2021/10/05 05:02:19;;;;;;;4.30;3.90;;;;;;;;;;2084741;28;20381;-67
2021/10/05 05:03:38;;;;;;;5.28;4.03;;;;;;;;;;2085258;28;20032;-66
2021/10/05 05:04:57;;;;;;;3.75;3.45;;;;;;;;;;2080774;28;20045;-67
2021/10/05 05:06:16;;;;;;;4.03;3.72;;;;;;;;;;2085751;28;20032;-67
2021/10/05 05:07:35;;;;;;;5.97;3.97;;;;;;;;;;2085587;28;20021;-65
2021/10/05 05:08:54;;;;;;;6.53;3.88;;;;;;;;;;2082073;28;20037;-65
2021/10/05 05:10:13;;;;;;;5.68;4.10;;;;;;;;;;2088957;28;20072;-68
2021/10/05 05:11:32;;;;;;;4.15;3.83;;;;;;;;;;2083294;28;20403;-67
2021/10/05 05:12:51;;;;;;;4.70;4.30;;;;;;;;;;2086093;28;20418;-67
2021/10/05 05:14:14;;;;;;;4.93;3.92;;;;;;;;;;2081425;28;20029;-67
2021/10/05 05:15:33;;;;;;;4.53;4.13;;;;;;;;;;2086586;28;20029;-68
2021/10/05 05:16:52;;;;;;;5.28;3.70;;;;;;;;;;2085809;28;20510;-68
2021/10/05 05:18:11;;;;;;;5.65;4.25;;;;;;;;;;2086896;28;20118;-68
2021/10/05 05:19:29;;;;;;;4.50;4.07;;;;;;;;;;2086489;28;20029;-69
2021/10/05 05:20:48;;;;;;;4.80;4.03;;;;;;;;;;2085131;28;20057;-69
2021/10/05 05:22:07;;;;;;;3.95;3.63;;;;;;;;;;2082928;28;20387;-68
2021/10/05 05:23:26;;;;;;;4.50;4.10;;;;;;;;;;2087582;28;20029;-67
2021/10/05 05:24:45;;;;;;;6.32;4.25;;;;;;;;;;2086122;28;20025;-68
2021/10/05 05:26:04;;;;;;;5.20;4.30;;;;;;;;;;2084378;28;20028;-68
2021/10/05 05:27:23;;;;;;;7.97;4.60;;;;;;;;;;2087775;28;20487;-68
2021/10/05 05:28:42;;;;;;;5.45;4.40;;;;;;;;;;2086611;28;20032;-64
2021/10/05 05:30:01;;;;;;;6.53;4.38;;;;;;;;;;2086031;28;20040;-65
2021/10/05 05:31:20;;;;;;;5.85;4.32;;;;;;;;;;2088193;28;20033;-65
2021/10/05 05:32:39;;;;;;;5.93;5.22;;;;;;;;;;2085869;28;20215;-64
2021/10/05 05:33:58;;;;;;;5.70;5.20;;;;;;;;;;2084319;28;20025;-64
2021/10/05 05:35:16;;;;;;;5.63;5.18;;;;;;;;;;2086912;28;20554;-64
2021/10/05 05:36:36;;;;;;;6.38;5.13;;;;;;;;;;2087972;28;20096;-65
2021/10/05 05:37:55;;;;;;;6.72;5.13;;;;;;;;;;2082423;28;20025;-63
2021/10/05 05:39:14;;;;;;;8.52;5.90;;;;;;;;;;2086515;28;20040;-64
2021/10/05 05:40:33;;;;;;;6.63;5.78;;;;;;;;;;2084079;28;20116;-65
2021/10/05 05:41:52;;;;;;;7.38;6.10;;;;;;;;;;2086039;28;20033;-64
2021/10/05 05:43:11;;;;;;;11.75;6.82;;;;;;;;;;2085605;28;20422;-65
2021/10/05 05:44:30;;;;;;;7.97;6.97;;;;;;;;;;2083385;28;20037;-65
2021/10/05 05:45:49;;;;;;;8.38;7.07;;;;;;;;;;2087353;28;20048;-66
2021/10/05 05:47:08;;;;;;;7.78;6.97;;;;;;;;;;2089629;28;20037;-65
2021/10/05 05:48:27;;;;;;;10.55;7.53;;;;;;;;;;2085834;28;20041;-65
2021/10/05 05:49:46;;;;;;;13.90;8.10;;;;;;;;;;2079464;28;20034;-64
2021/10/05 05:51:04;;;;;;;10.30;7.70;;;;;;;;;;2082468;28;20041;-65
2021/10/05 05:52:23;;;;;;;10.48;8.48;;;;;;;;;;2084583;28;20379;-65
2021/10/05 05:53:44;;;;;;;13.93;8.50;;;;;;;;;;2076503;28;20512;-65
2021/10/05 05:55:03;;;;;;;10.57;8.82;;;;;;;;;;2082098;28;20048;-64
2021/10/05 05:56:22;;;;;;;12.77;8.73;;;;;;;;;;2086362;28;20042;-65
2021/10/05 05:57:41;;;;;;;10.20;8.60;;;;;;;;;;2086970;28;20116;-65
2021/10/05 05:59:00;;;;;;;8.88;7.97;;;;;;;;;;2085870;28;20025;-65
2021/10/05 06:00:19;;;;;;;12.30;8.63;;;;;;;;;;2086307;28;20057;-66
2021/10/05 06:01:39;;;;;;;10.02;8.50;;;;;;;;;;2086678;28;20063;-64
2021/10/05 06:02:57;;;;;;;11.60;8.68;;;;;;;;;;2086189;28;20107;-64
2021/10/05 06:04:16;;;;;;;10.90;8.77;;;;;;;;;;2088982;28;20040;-65
2021/10/05 06:05:36;;;;;;;11.45;9.10;;;;;;;;;;2084120;28;20136;-65
2021/10/05 06:06:56;;;;;;;12.02;8.80;;;;;;;;;;2086546;28;20025;-65
2021/10/05 06:08:14;;;;;;;9.45;8.43;;;;;;;;;;2081429;28;20495;-64
2021/10/05 06:09:35;;;;;;;10.38;8.88;;;;;;;;;;2086682;28;20029;-65
2021/10/05 06:10:54;;;;;;;11.43;8.35;;;;;;;;;;2083527;28;20426;-64
2021/10/05 06:12:17;;;;;;;9.95;8.68;;;;;;;;;;2090324;28;20142;-64
2021/10/05 06:13:37;;;;;;;13.35;8.57;;;;;;;;;;2085562;28;20037;-65
2021/10/05 06:14:55;;;;;;;9.48;8.05;;;;;;;;;;2089028;28;20403;-64
2021/10/05 06:16:15;;;;;;;10.50;7.72;;;;;;;;;;2087222;28;20388;-63
2021/10/05 06:17:36;;;;;;;11.10;7.75;;;;;;;;;;2085221;28;20472;-65
2021/10/05 06:18:55;;;;;;;12.13;8.68;;;;;;;;;;2089821;28;20021;-63
2021/10/05 06:20:15;;;;;;;8.73;7.80;;;;;;;;;;2087529;28;20033;-63
2021/10/05 06:21:34;;;;;;;10.05;8.52;;;;;;;;;;2085771;28;20419;-63
2021/10/05 06:22:53;;;;;;;8.98;8.00;;;;;;;;;;2086711;28;20033;-63
2021/10/05 06:24:12;;;;;;;11.50;8.32;;;;;;;;;;2086759;28;20065;-64
2021/10/05 06:25:31;;;;;;;10.25;7.75;;;;;;;;;;2081555;28;20053;-64
2021/10/05 06:26:50;;;;;;;11.45;8.32;;;;;;;;;;2085262;28;20025;-64
2021/10/05 06:28:09;;;;;;;7.85;7.13;;;;;;;;;;2087521;28;20041;-63
2021/10/05 06:29:28;;;;;;;9.98;8.52;;;;;;;;;;2088427;28;20033;-64
2021/10/05 06:30:47;;;;;;;11.43;8.48;;;;;;;;;;2086294;28;20040;-64
2021/10/05 06:32:06;;;;;;;9.73;8.73;;;;;;;;;;2088611;28;20033;-64
2021/10/05 06:33:25;;;;;;;10.73;8.95;;;;;;;;;;2089189;28;20495;-64
2021/10/05 06:34:44;;;;;;;11.02;9.60;;;;;;;;;;2082876;28;20045;-64
2021/10/05 06:36:03;;;;;;;14.65;9.30;;;;;;;;;;2079493;28;20041;-64
2021/10/05 06:37:22;;;;;;;14.05;9.75;;;;;;;;;;2084660;28;20112;-64
2021/10/05 06:38:41;;;;;;;11.35;9.02;;;;;;;;;;2088156;28;20100;-64
2021/10/05 06:40:00;;;;;;;15.82;10.05;;;;;;;;;;2084341;28;20435;-63
2021/10/05 06:41:18;;;;;;;12.80;10.13;;;;;;;;;;2085094;28;20475;-64
2021/10/05 06:42:37;;;;;;;16.50;10.57;;;;;;;;;;2086882;28;20491;-64
2021/10/05 06:43:56;;;;;;;13.98;10.60;;;;;;;;;;2090157;28;20503;-63
2021/10/05 06:45:15;;;;;;;12.23;10.13;;;;;;;;;;2088110;28;20492;-64
2021/10/05 06:46:34;;;;;;;15.27;10.60;;;;;;;;;;2084230;28;20037;-63
2021/10/05 06:47:53;;;;;;;15.38;11.00;;;;;;;;;;2084627;28;20021;-63
2021/10/05 06:49:12;;;;;;;13.80;10.73;;;;;;;;;;2088416;28;20037;-64
2021/10/05 06:50:32;;;;;;;17.67;11.50;;;;;;;;;;2087703;28;20021;-63
2021/10/05 06:51:51;;;;;;;14.65;10.75;;;;;;;;;;2087801;28;20033;-65
2021/10/05 06:53:15;;;;;;;14.90;11.30;;;;;;;;;;2089004;28;20037;-65
2021/10/05 06:54:34;;;;;;;13.05;10.38;;;;;;;;;;2081156;28;20037;-66
2021/10/05 06:55:53;;;;;;;17.00;11.18;;;;;;;;;;2083158;28;20064;-64
2021/10/05 06:57:12;;;;;;;14.85;10.32;;;;;;;;;;2086037;28;20403;-65
2021/10/05 06:58:31;;;;;;;14.48;10.10;;;;;;;;;;2083769;28;20021;-66
2021/10/05 06:59:49;;;;;;;15.57;10.10;;;;;;;;;;2085205;28;20021;-66
2021/10/05 07:01:08;;;;;;;11.80;10.50;;;;;;;;;;2086677;28;20063;-63
2021/10/05 07:02:28;;;;;;;15.23;10.25;;;;;;;;;;2088490;28;20052;-66
2021/10/05 07:03:47;;;;;;;11.50;9.68;;;;;;;;;;2085079;28;20029;-66
2021/10/05 07:05:06;;;;;;;11.90;9.40;;;;;;;;;;2088044;28;20021;-66
2021/10/05 07:06:25;;;;;;;11.85;8.77;;;;;;;;;;2086622;28;20033;-66
2021/10/05 07:07:45;;;;;;;14.27;8.80;;;;;;;;;;2084678;28;20042;-67
2021/10/05 07:09:05;;;;;;;10.32;8.00;;;;;;;;;;2086848;28;20037;-67
2021/10/05 07:10:24;;;;;;;10.73;8.60;;;;;;;;;;2086299;28;20037;-67
2021/10/05 07:11:44;;;;;;;9.98;7.95;;;;;;;;;;2082448;28;20032;-65
2021/10/05 07:13:03;;;;;;;8.68;7.82;;;;;;;;;;2086317;28;20111;-67
2021/10/05 07:14:22;;;;;;;12.25;7.95;;;;;;;;;;2078555;28;20522;-66
2021/10/05 07:15:40;;;;;;;9.50;7.60;;;;;;;;;;2080603;28;20025;-65
2021/10/05 07:17:01;;;;;;;8.50;6.15;;;;;;;;;;2076570;28;20025;-66
2021/10/05 07:18:19;;;;;;;8.10;6.53;;;;;;;;;;2084953;28;20093;-67
2021/10/05 07:19:39;;;;;;;8.27;6.30;;;;;;;;;;2078812;28;20057;-67
2021/10/05 07:20:58;;;;;;;7.25;5.60;;;;;;;;;;2076070;28;20013;-66
2021/10/05 07:22:16;;;;;;;6.82;5.47;;;;;;;;;;2082176;28;20124;-66
2021/10/05 07:23:35;;;;;;;6.95;5.80;;;;;;;;;;2085033;28;20495;-66
2021/10/05 07:24:54;;;;;;;7.35;5.03;;;;;;;;;;2088685;28;20025;-66
2021/10/05 07:26:13;;;;;;;5.75;4.90;;;;;;;;;;2087111;28;20029;-66
2021/10/05 07:27:32;;;;;;;5.88;5.38;;;;;;;;;;2076618;28;20034;-66
2021/10/05 07:28:51;;;;;;;5.60;5.10;;;;;;;;;;2076374;28;20037;-66
2021/10/05 07:30:11;;;;;;;5.78;4.95;;;;;;;;;;2084103;28;20463;-66
2021/10/05 07:31:34;;;;;;;5.72;4.90;;;;;;;;;;2086615;28;20029;-66
2021/10/05 07:32:58;;;;;;;7.05;4.28;;;;;;;;;;2086910;28;20025;-66
2021/10/05 07:34:16;;;;;;;5.30;4.80;;;;;;;;;;2079261;28;20033;-66
2021/10/05 07:35:35;;;;;;;4.68;4.28;;;;;;;;;;2084023;28;20059;-67
2021/10/05 07:36:54;;;;;;;4.82;4.05;;;;;;;;;;2078748;28;20038;-67
2021/10/05 07:38:13;;;;;;;4.97;4.28;;;;;;;;;;2084628;28;20104;-65
2021/10/05 07:39:32;;;;;;;6.07;4.43;;;;;;;;;;2087251;28;20395;-65
2021/10/05 07:40:51;;;;;;;4.68;4.28;;;;;;;;;;2084234;28;20033;-67
2021/10/05 07:42:10;;;;;;;4.45;4.13;;;;;;;;;;2079650;28;20030;-66
2021/10/05 07:43:29;;;;;;;5.63;4.05;;;;;;;;;;2083738;28;20493;-66
2021/10/05 07:44:48;;;;;;;6.03;4.30;;;;;;;;;;2084984;28;20045;-68
2021/10/05 07:46:08;;;;;;;4.07;3.78;;;;;;;;;;2086531;28;20471;-66
2021/10/05 07:47:26;;;;;;;5.70;4.22;;;;;;;;;;2088450;28;20028;-66
2021/10/05 07:48:45;;;;;;;5.15;4.70;;;;;;;;;;2088436;28;20136;-66
2021/10/05 07:50:05;;;;;;;5.45;4.72;;;;;;;;;;2086767;28;20025;-66
2021/10/05 07:51:24;;;;;;;4.97;4.35;;;;;;;;;;2083146;28;20029;-66
2021/10/05 07:52:43;;;;;;;5.05;4.55;;;;;;;;;;2081949;28;20096;-64
2021/10/05 07:54:02;;;;;;;5.28;4.78;;;;;;;;;;2086743;28;20392;-66